• Join FlightAware (Why Join?)
  • Login
  • US Flag 
10:42AM EST


 

Airport Tracker/Info


-or-


 

Live Flight TrackerFlight Track Log ✈ ASA55 ✈ 22-Apr-2013 ✈ PABR / BRW - PANC

Flight Track Log - Related Links

Times and Time Zones

All times are in EDT time to prevent confusion due to time zone crossing. See the ASA55 flight status page for this flight to view local times or setup timezone preferences in your user account.

Time Position Orientation Groundspeed Altitude Reporting Facility
EDT Latitude Longitude Course Direction KTS MPH feet Rate Location/Type
03:23PM 70.4716 -155.9680 162° South  Level Estimated
03:24PM 70.3697 -155.8724 163° South  Level Estimated
03:25PM 70.2677 -155.7778 163° South  Level Estimated
03:26PM 70.1657 -155.6841 163° South  Level Estimated
03:27PM 70.0637 -155.5913 163° South  Level Estimated
03:27PM 70.3667 -155.9500 163° South 430 495 24,600  Level Anchorage Center
03:28PM 69.9616 -155.4995 163° South  Level Estimated
03:28PM 70.2500 -155.8333 161° South 440 506 26,200  Level Anchorage Center
03:29PM 69.8595 -155.4085 163° South  Level Estimated
03:29PM 70.1333 -155.7333 164° South 450 518 27,600  Level Anchorage Center
03:30PM 69.7573 -155.3184 163° South  Level Estimated
03:30PM 70.0167 -155.6333 164° South 440 506 29,400  Level Anchorage Center
03:31PM 69.6550 -155.2292 163° South  Level Estimated
03:31PM 69.9000 -155.5167 161° South 450 518 31,000  Level Anchorage Center
03:32PM 69.5528 -155.1408 163° South  Level Estimated
03:32PM 69.7667 -155.4167 165° South 450 518 31,000  Level Anchorage Center
03:33PM 69.6500 -155.3167 163° South 460 529 31,000  Level Anchorage Center
03:34PM 69.5333 -155.2167 163° South 430 495 31,000  Level Anchorage Center
03:35PM 69.4167 -155.1167 163° South 450 518 31,000  Level Anchorage Center
03:36PM 69.3000 -155.0167 163° South 450 518 31,000  Level Anchorage Center
03:37PM 69.1667 -154.9333 167° South 450 518 31,000  Level Anchorage Center
03:38PM 69.0500 -154.8167 160° South 450 518 31,000  Level Anchorage Center
03:39PM 68.9333 -154.7333 166° South 450 518 31,000  Level Anchorage Center
03:40PM 68.8167 -154.6333 163° South 450 518 31,000  Level Anchorage Center
03:41PM 68.7000 -154.5500 165° South 450 518 31,000  Level Anchorage Center
03:42PM 68.5667 -154.4500 165° South 450 518 31,000  Level Anchorage Center
03:43PM 68.4500 -154.3667 165° South 450 518 31,000  Level Anchorage Center
03:44PM 68.3333 -154.2667 162° South 450 518 31,000  Level Anchorage Center
03:45PM 68.2167 -154.1833 165° South 450 518 31,000  Level Anchorage Center
03:46PM 68.1000 -154.1000 165° South 450 518 31,000  Level Anchorage Center
03:47PM 67.9667 -154.0000 164° South 450 518 31,000  Level Anchorage Center
03:48PM 67.8500 -153.9167 165° South 450 518 31,000  Level Anchorage Center
03:49PM 67.7333 -153.8333 165° South 440 506 31,000  Level Anchorage Center
03:50PM 67.6167 -153.7500 165° South 450 518 31,000  Level Anchorage Center
03:51PM 67.5000 -153.6667 165° South 440 506 31,000  Level Anchorage Center
03:52PM 67.3667 -153.5833 166° South 440 506 31,000  Level Anchorage Center
03:53PM 67.2500 -153.5000 165° South 450 518 31,000  Level Anchorage Center
03:54PM 67.1333 -153.4167 164° South 440 506 31,000  Level Anchorage Center
03:55PM 67.0167 -153.3500 167° South 450 518 31,000  Level Anchorage Center
03:56PM 66.9000 -153.2667 164° South 450 518 31,000  Level Anchorage Center
03:57PM 66.7667 -153.1833 166° South 450 518 31,000  Level Anchorage Center
03:58PM 66.6500 -153.1167 167° South 450 518 31,000  Level Anchorage Center
03:59PM 66.5333 -153.0333 164° South 440 506 31,000  Level Anchorage Center
04:00PM 66.4000 -152.9500 166° South 450 518 31,000  Level Anchorage Center
04:01PM 66.2833 -152.8833 167° South 450 518 31,000  Level Anchorage Center
04:02PM 66.1667 -152.8000 164° South 450 518 31,000  Level Anchorage Center
04:03PM 66.0333 -152.7333 169° South 450 518 31,000  Level Anchorage Center
04:04PM 65.9167 -152.6500 164° South 450 518 31,000  Level Anchorage Center
04:05PM 65.8000 -152.5833 167° South 450 518 31,000  Level Anchorage Center
04:06PM 65.6667 -152.5000 166° South 450 518 31,000  Level Anchorage Center
04:07PM 65.5500 -152.4333 167° South 450 518 31,000  Level Anchorage Center
04:08PM 65.4333 -152.3667 167° South 450 518 31,000  Level Anchorage Center
04:09PM 65.3000 -152.2833 165° South 450 518 31,000  Level Anchorage Center
04:10PM 65.1833 -152.2167 167° South 440 506 31,000  Level Anchorage Center
04:11PM 65.0833 -152.1667 168° South 450 518 31,000  Level Anchorage Center
04:12PM 64.9667 -152.1000 166° South 440 506 31,000  Level Anchorage Center
04:13PM 64.8500 -152.0333 166° South 450 518 31,000  Level Anchorage Center
04:14PM 64.7167 -151.9667 168° South 440 506 31,000  Level Anchorage Center
04:15PM 64.6000 -151.9000 166° South 440 506 31,000  Level Anchorage Center
04:16PM 64.4833 -151.8333 166° South 440 506 31,000  Level Anchorage Center
04:17PM 64.3500 -151.7667 168° South 440 506 31,000  Level Anchorage Center
04:18PM 64.2333 -151.7000 166° South 440 506 31,000  Level Anchorage Center
04:19PM 64.1167 -151.6333 166° South 450 518 31,000  Level Anchorage Center
04:20PM 64.0000 -151.5833 169° South 440 506 31,000  Level Anchorage Center
04:21PM 63.8833 -151.5167 166° South 440 506 31,000  Level Anchorage Center
04:22PM 63.7667 -151.4500 166° South 440 506 31,000  Level Anchorage Center
04:23PM 63.6333 -151.4000 171° South 440 506 31,000  Level Anchorage Center
04:24PM 63.5167 -151.3333 166° South 440 506 31,000  Level Anchorage Center
04:25PM 63.4000 -151.2833 169° South 440 506 31,000  Level Anchorage Center
04:26PM 63.2833 -151.2000 162° South 430 495 31,000  Level Anchorage Center
04:27PM 63.1667 -151.1500 169° South 430 495 31,000  Level Anchorage Center
04:28PM 63.0500 -151.0833 165° South 440 506 31,000  Level Anchorage Center
04:29PM 62.9333 -151.0333 169° South 430 495 31,000  Level Anchorage Center
04:30PM 62.8167 -150.9833 169° South 420 483 31,000  Level Anchorage Center
04:31PM 62.6833 -150.9167 167° South 430 495 31,000  Level Anchorage Center
04:32PM 62.5667 -150.8667 169° South 420 483 31,000 -1,560 Level Anchorage Center
04:33PM 62.4500 -150.8167 169° South 420 483 27,900 -3,360 Descending Anchorage Center
04:34PM 62.3333 -150.7500 165° South 440 506 24,400 -3,240 Descending Anchorage Center
04:35PM 62.2167 -150.7000 169° South 420 483 21,500 -2,880 Descending Anchorage Center
04:36PM 62.1167 -150.6500 167° South 400 460 18,700 -2,520 Descending Anchorage Center
04:37PM 62.0167 -150.6167 171° South 390 449 16,500 -2,640 Descending Anchorage Center
04:38PM 61.9000 -150.5667 169° South 380 437 13,500 -3,000 Descending Anchorage Center
04:40PM 61.7132 -150.4667 180° South  Level FlightAware Approximate
04:47PM 61.1741 -149.9982 270° West  Level Estimated
04:48PM 61.1741 -149.9982 270° West  Level Estimated
04:49PM 61.1741 -149.9982 270° West  Level Estimated
04:50PM 61.1741 -149.9982 270° West  Level Estimated
04:51PM 61.1741 -149.9982 270° West  Level Estimated
04:52PM 61.1741 -149.9982 270° West  Level Estimated
04:53PM 61.1741 -149.9982 270° West  Level Estimated
04:54PM 61.1741 -149.9982 270° West  Level Estimated
04:55PM 61.1741 -149.9982 270° West  Level Estimated
04:56PM 61.1741 -149.9982 270° West  Level Estimated
04:57PM 61.1741 -149.9982 270° West  Level Estimated